createdAt,value
2023-03-06T00:00:18.403Z,72.22
2023-03-06T00:02:46.724Z,71.67
2023-03-06T00:05:15.345Z,71.62
2023-03-06T00:07:44.079Z,73.17
2023-03-06T00:10:16.468Z,73.71
2023-03-06T00:12:44.420Z,72.73
2023-03-06T00:15:13.497Z,72.23
2023-03-06T00:17:41.840Z,72.71
2023-03-06T00:20:11.792Z,73.28
2023-03-06T00:22:40.356Z,73.79
2023-03-06T00:25:09.558Z,74.19
2023-03-06T00:27:38.756Z,74.27
2023-03-06T00:30:08.239Z,73.60
2023-03-06T00:32:36.092Z,72.97
2023-03-06T00:35:04.233Z,73.96
2023-03-06T00:37:32.228Z,73.50
2023-03-06T00:40:00.386Z,73.04
2023-03-06T00:42:28.344Z,73.38
2023-03-06T00:44:57.578Z,74.12
2023-03-06T00:47:25.480Z,73.88
2023-03-06T00:49:53.350Z,74.25
2023-03-06T00:52:21.278Z,74.33
2023-03-06T00:54:49.166Z,74.14
2023-03-06T00:57:17.045Z,73.79
2023-03-06T00:59:46.022Z,73.89
2023-03-06T01:02:15.743Z,74.12
2023-03-06T01:04:43.854Z,74.41
2023-03-06T01:07:12.477Z,74.53
2023-03-06T01:09:40.403Z,75.24
2023-03-06T01:12:09.087Z,75.77
2023-03-06T01:14:37.174Z,74.96
2023-03-06T01:17:05.161Z,75.29
2023-03-06T01:19:34.439Z,75.20
2023-03-06T01:22:02.363Z,75.19
2023-03-06T01:24:30.301Z,75.72
2023-03-06T01:26:58.268Z,76.08
2023-03-06T01:29:26.488Z,75.67
2023-03-06T01:31:54.642Z,75.69
2023-03-06T01:34:22.571Z,76.09
2023-03-06T01:36:51.844Z,75.22
2023-03-06T01:39:19.834Z,76.03
2023-03-06T01:41:47.811Z,75.57
2023-03-06T01:44:15.685Z,76.96
2023-03-06T01:46:43.994Z,76.83
2023-03-06T01:49:19.678Z,76.43
2023-03-06T01:51:53.631Z,76.56
2023-03-06T01:54:24.883Z,76.51
2023-03-06T01:56:57.814Z,76.25
2023-03-06T01:59:27.608Z,76.43
2023-03-06T02:01:57.122Z,77.53
2023-03-06T02:04:25.719Z,77.62
2023-03-06T02:06:56.535Z,76.82
2023-03-06T02:09:24.465Z,76.82
2023-03-06T02:11:55.200Z,77.09
2023-03-06T02:14:23.466Z,77.49
2023-03-06T02:16:52.445Z,77.70
2023-03-06T02:19:34.283Z,77.84
2023-03-06T02:22:04.364Z,78.19
2023-03-06T02:24:40.980Z,78.67
2023-03-06T02:27:14.309Z,77.85
2023-03-06T02:29:43.419Z,78.21
2023-03-06T02:32:11.394Z,79.05
2023-03-06T02:34:52.662Z,79.51
2023-03-06T02:37:21.825Z,78.87
2023-03-06T02:39:53.966Z,78.27
2023-03-06T02:42:28.852Z,78.32
2023-03-06T02:45:00.123Z,77.55
2023-03-06T02:47:28.044Z,78.22
2023-03-06T02:49:55.991Z,78.04
2023-03-06T02:52:24.003Z,78.08
2023-03-06T02:54:51.899Z,78.48
2023-03-06T02:57:19.755Z,77.70
2023-03-06T02:59:49.114Z,77.68
2023-03-06T03:02:17.366Z,77.68
2023-03-06T03:04:45.703Z,77.39
2023-03-06T03:07:13.654Z,77.58
2023-03-06T03:09:42.058Z,77.33
2023-03-06T03:12:10.840Z,77.44
2023-03-06T03:14:39.649Z,76.67
2023-03-06T03:17:09.033Z,76.82
2023-03-06T03:19:36.910Z,76.40
2023-03-06T03:22:04.957Z,77.26
2023-03-06T03:24:32.962Z,77.80
2023-03-06T03:27:01.984Z,76.38
2023-03-06T03:29:30.121Z,76.45
2023-03-06T03:31:58.147Z,76.28
2023-03-06T03:34:29.389Z,77.08
2023-03-06T03:36:58.751Z,76.59
2023-03-06T03:39:26.776Z,77.10
2023-03-06T03:41:54.736Z,76.57
2023-03-06T03:44:23.709Z,77.33
2023-03-06T03:46:51.958Z,76.74
2023-03-06T03:49:23.092Z,75.62
2023-03-06T03:51:53.120Z,77.00
2023-03-06T03:54:22.396Z,76.19
2023-03-06T03:56:51.803Z,77.41
2023-03-06T03:59:25.455Z,76.38
2023-03-06T04:02:25.683Z,76.33
2023-03-06T04:05:05.403Z,76.49
2023-03-06T04:07:34.989Z,76.37
2023-03-06T04:10:03.112Z,77.35
2023-03-06T04:12:32.029Z,77.40
2023-03-06T04:15:00.240Z,77.43
2023-03-06T04:17:29.209Z,77.22
2023-03-06T04:19:57.729Z,76.40
2023-03-06T04:22:25.700Z,76.43
2023-03-06T04:24:55.215Z,76.01
2023-03-06T04:27:23.455Z,78.14
2023-03-06T04:29:51.611Z,76.73
2023-03-06T04:32:21.426Z,78.23
2023-03-06T04:34:49.833Z,76.89
2023-03-06T04:37:21.432Z,75.87
2023-03-06T04:39:50.186Z,76.32
2023-03-06T04:42:19.780Z,76.41
2023-03-06T04:44:47.824Z,76.36
2023-03-06T04:47:16.988Z,77.44
2023-03-06T04:49:46.636Z,76.88
2023-03-06T04:52:14.592Z,76.26
2023-03-06T04:54:42.874Z,75.80
2023-03-06T04:57:12.876Z,75.80
2023-03-06T04:59:42.295Z,75.33
2023-03-06T05:02:10.242Z,74.88
2023-03-06T05:04:38.169Z,75.16
2023-03-06T05:07:06.152Z,74.95
2023-03-06T05:09:35.855Z,75.96
2023-03-06T05:12:04.619Z,75.96
2023-03-06T05:14:32.556Z,75.08
2023-03-06T05:17:02.139Z,75.50
2023-03-06T05:19:30.025Z,75.58
2023-03-06T05:21:57.966Z,76.31
2023-03-06T05:24:25.799Z,75.60
2023-03-06T05:26:53.742Z,76.18
2023-03-06T05:29:21.835Z,75.73
2023-03-06T05:31:49.846Z,74.72
2023-03-06T05:34:19.130Z,74.70
2023-03-06T05:36:47.371Z,74.74
2023-03-06T05:39:15.310Z,74.95
2023-03-06T05:41:43.181Z,75.22
2023-03-06T05:44:11.050Z,75.04
2023-03-06T05:46:38.989Z,74.47
2023-03-06T05:49:06.813Z,74.78
2023-03-06T05:51:36.202Z,73.55
2023-03-06T05:54:04.064Z,73.98
2023-03-06T05:56:31.963Z,73.84
2023-03-06T05:58:59.820Z,74.25
2023-03-06T06:01:28.504Z,74.21
2023-03-06T06:03:56.373Z,73.62
2023-03-06T06:06:24.281Z,73.06
2023-03-06T06:08:53.838Z,74.06
2023-03-06T06:11:21.854Z,74.68
2023-03-06T06:13:50.123Z,73.86
2023-03-06T06:16:19.139Z,74.45
2023-03-06T06:18:47.535Z,74.41
2023-03-06T06:21:15.962Z,75.10
2023-03-06T06:23:44.328Z,74.13
2023-03-06T06:26:13.571Z,75.05
2023-03-06T06:28:41.469Z,74.06
2023-03-06T06:31:10.571Z,73.53
2023-03-06T06:33:38.557Z,72.30
2023-03-06T06:36:06.899Z,73.92
2023-03-06T06:38:35.178Z,74.03
2023-03-06T06:41:33.496Z,73.61
2023-03-06T06:43:55.481Z,73.47
2023-03-06T06:46:59.257Z,74.43
2023-03-06T06:49:12.652Z,74.60
2023-03-06T06:51:41.570Z,74.44
2023-03-06T06:54:09.725Z,74.17
2023-03-06T06:56:37.569Z,74.98
2023-03-06T06:59:16.182Z,73.84
2023-03-06T07:01:45.264Z,72.72
2023-03-06T07:04:13.761Z,73.43
2023-03-06T07:06:41.955Z,72.98
2023-03-06T07:09:09.852Z,73.41
2023-03-06T07:11:38.528Z,72.88
2023-03-06T07:14:07.754Z,73.65
2023-03-06T07:16:35.717Z,74.12
2023-03-06T07:19:03.688Z,74.14
2023-03-06T07:21:31.594Z,74.27
2023-03-06T07:23:59.748Z,73.80
2023-03-06T07:26:28.915Z,73.22
2023-03-06T07:28:56.772Z,73.29
2023-03-06T07:31:28.534Z,73.74
2023-03-06T07:33:56.693Z,71.91
2023-03-06T07:36:24.988Z,72.07
2023-03-06T07:38:52.887Z,72.32
2023-03-06T07:41:22.655Z,71.31
2023-03-06T07:43:51.100Z,71.69
2023-03-06T07:46:19.437Z,72.81
2023-03-06T07:48:48.753Z,71.79
2023-03-06T07:51:19.101Z,71.58
2023-03-06T07:53:47.795Z,72.47
2023-03-06T07:56:15.973Z,73.95
2023-03-06T07:58:45.812Z,71.66
2023-03-06T08:01:15.602Z,71.79
2023-03-06T08:03:43.671Z,71.98
2023-03-06T08:06:15.073Z,72.19
2023-03-06T08:08:45.609Z,70.68
2023-03-06T08:11:15.246Z,69.67
2023-03-06T08:13:43.785Z,71.73
2023-03-06T08:16:12.227Z,71.15
2023-03-06T08:18:40.667Z,72.16
2023-03-06T08:21:11.231Z,70.01
2023-03-06T08:23:41.292Z,70.95
2023-03-06T08:26:13.291Z,68.91
2023-03-06T08:28:41.678Z,69.68
2023-03-06T08:31:11.048Z,69.48
2023-03-06T08:33:39.766Z,68.79
2023-03-06T08:36:08.150Z,70.56
2023-03-06T08:38:36.088Z,67.45
2023-03-06T08:41:05.697Z,68.88
2023-03-06T08:43:34.842Z,70.26
2023-03-06T08:46:03.373Z,70.12
2023-03-06T08:48:31.484Z,69.74
2023-03-06T08:50:59.417Z,69.63
2023-03-06T08:53:41.672Z,70.29
2023-03-06T08:56:17.419Z,69.21
2023-03-06T08:58:45.606Z,69.62
2023-03-06T09:01:17.666Z,68.60
2023-03-06T09:03:45.749Z,70.08
2023-03-06T09:06:14.875Z,68.85
2023-03-06T09:08:44.485Z,68.70
2023-03-06T09:11:14.463Z,67.69
2023-03-06T09:13:44.828Z,69.45
2023-03-06T09:16:13.635Z,69.23
2023-03-06T09:18:41.694Z,68.94
2023-03-06T09:21:11.001Z,66.83
2023-03-06T09:23:40.048Z,67.86
2023-03-06T09:26:08.592Z,67.76
2023-03-06T09:28:38.919Z,68.52
2023-03-06T09:31:11.041Z,68.89
2023-03-06T09:33:39.251Z,68.45
2023-03-06T09:36:08.339Z,67.33
2023-03-06T09:38:36.208Z,67.00
2023-03-06T09:41:10.056Z,67.51
2023-03-06T09:43:40.338Z,67.89
2023-03-06T09:46:18.073Z,66.47
2023-03-06T09:48:56.725Z,67.29
2023-03-06T09:51:31.528Z,66.27
2023-03-06T09:54:06.795Z,66.62
2023-03-06T09:56:36.802Z,67.58
2023-03-06T09:59:13.102Z,65.84
2023-03-06T10:01:46.047Z,66.39
2023-03-06T10:04:32.547Z,66.32
2023-03-06T10:07:04.841Z,65.92
2023-03-06T10:09:41.259Z,66.14
2023-03-06T10:12:24.313Z,67.94
2023-03-06T10:15:03.601Z,65.20
2023-03-06T10:17:37.681Z,67.28
2023-03-06T10:20:17.215Z,66.26
2023-03-06T10:23:00.831Z,66.47
2023-03-06T10:25:37.964Z,67.22
2023-03-06T10:28:15.746Z,66.50
2023-03-06T10:30:50.487Z,66.10
2023-03-06T10:33:24.431Z,66.74
2023-03-06T10:35:54.842Z,66.43
2023-03-06T10:38:25.273Z,68.58
2023-03-06T10:41:06.508Z,68.24
2023-03-06T10:43:36.394Z,66.57
2023-03-06T10:46:06.401Z,66.10
2023-03-06T10:48:38.798Z,65.24
2023-03-06T10:51:19.083Z,66.00
2023-03-06T10:53:53.758Z,66.22
2023-03-06T10:56:30.636Z,65.74
2023-03-06T10:59:10.096Z,64.95
2023-03-06T11:01:38.666Z,65.04
2023-03-06T11:04:23.901Z,66.00
2023-03-06T11:07:13.717Z,64.31
2023-03-06T11:09:41.989Z,65.56
2023-03-06T11:12:26.608Z,66.08
2023-03-06T11:15:18.363Z,64.25
2023-03-06T11:18:08.595Z,64.23
2023-03-06T11:20:53.032Z,66.15
2023-03-06T11:23:27.775Z,65.82
2023-03-06T11:25:58.322Z,65.01
2023-03-06T11:28:29.879Z,65.92
2023-03-06T11:31:04.001Z,64.27
2023-03-06T11:33:38.313Z,63.11
2023-03-06T11:36:14.521Z,62.43
2023-03-06T11:38:49.959Z,63.64
2023-03-06T11:41:26.114Z,63.57
2023-03-06T11:44:00.705Z,62.26
2023-03-06T11:46:32.951Z,62.51
2023-03-06T11:49:14.845Z,62.41
2023-03-06T11:51:50.281Z,61.79
2023-03-06T11:54:18.431Z,62.29
2023-03-06T11:56:55.462Z,62.97
2023-03-06T11:59:57.179Z,61.99
2023-03-06T12:02:40.375Z,61.70
2023-03-06T12:05:24.279Z,64.05
2023-03-06T12:08:02.683Z,61.70
2023-03-06T12:10:35.104Z,60.99
2023-03-06T12:13:20.555Z,61.12
2023-03-06T12:16:10.189Z,61.19
2023-03-06T12:18:46.845Z,58.36
2023-03-06T12:21:25.193Z,59.93
2023-03-06T12:24:17.552Z,60.42
2023-03-06T12:27:06.482Z,59.70
2023-03-06T12:30:00.907Z,59.20
2023-03-06T12:32:40.861Z,60.61
2023-03-06T12:35:29.802Z,61.13
2023-03-06T12:38:07.709Z,59.80
2023-03-06T12:40:54.750Z,60.44
2023-03-06T12:43:48.545Z,61.05
2023-03-06T12:46:17.218Z,56.18
2023-03-06T12:48:49.497Z,58.05
2023-03-06T12:51:20.933Z,58.25
2023-03-06T12:53:51.226Z,58.18
2023-03-06T12:56:21.842Z,58.69
2023-03-06T12:58:52.034Z,57.50
2023-03-06T13:01:39.702Z,57.53
2023-03-06T13:04:30.094Z,55.83
2023-03-06T13:07:16.928Z,59.56
2023-03-06T13:10:01.591Z,58.45
2023-03-06T13:12:50.684Z,55.06
2023-03-06T13:15:38.193Z,56.22
2023-03-06T13:18:43.757Z,55.06
2023-03-06T13:21:47.377Z,54.45
2023-03-06T13:24:18.567Z,55.35
2023-03-06T13:26:58.603Z,55.03
2023-03-06T13:30:01.959Z,56.37
2023-03-06T13:32:33.912Z,57.60
2023-03-06T13:35:02.201Z,56.22
2023-03-06T13:38:00.856Z,55.27
2023-03-06T13:40:34.232Z,56.21
2023-03-06T13:43:19.775Z,57.37
2023-03-06T13:45:49.148Z,55.42
2023-03-06T13:48:44.790Z,54.03
2023-03-06T13:51:24.984Z,54.98
2023-03-06T13:54:21.590Z,56.92
2023-03-06T13:57:15.543Z,56.60
2023-03-06T14:00:21.968Z,54.06
2023-03-06T14:03:28.309Z,54.45
2023-03-06T14:05:58.918Z,54.95
2023-03-06T14:08:29.769Z,53.16
2023-03-06T14:11:02.762Z,52.38
2023-03-06T14:13:46.699Z,52.48
2023-03-06T14:16:20.430Z,53.95
2023-03-06T14:18:50.524Z,54.57
2023-03-06T14:21:30.758Z,55.28
2023-03-06T14:24:00.677Z,53.58
2023-03-06T14:26:32.844Z,52.28
2023-03-06T14:29:02.444Z,52.43
2023-03-06T14:31:33.914Z,51.10
2023-03-06T14:34:04.888Z,50.49
2023-03-06T14:36:36.925Z,52.16
2023-03-06T14:39:09.831Z,52.08
2023-03-06T14:41:38.125Z,53.44
2023-03-06T14:44:10.509Z,52.20
2023-03-06T14:46:39.049Z,51.33
2023-03-06T14:49:08.251Z,51.56
2023-03-06T14:51:42.773Z,51.29
2023-03-06T14:54:17.118Z,52.59
2023-03-06T14:56:47.292Z,52.14
2023-03-06T14:59:19.444Z,50.81
2023-03-06T15:01:51.168Z,51.19
2023-03-06T15:04:27.218Z,50.28
2023-03-06T15:06:58.198Z,52.43
2023-03-06T15:09:29.780Z,51.62
2023-03-06T15:12:01.252Z,51.31
2023-03-06T15:14:35.455Z,51.48
2023-03-06T15:17:23.618Z,49.82
2023-03-06T15:19:54.627Z,51.60
2023-03-06T15:22:37.728Z,51.36
2023-03-06T15:25:20.869Z,52.52
2023-03-06T15:27:50.840Z,51.92
2023-03-06T15:30:28.706Z,51.20
2023-03-06T15:33:24.110Z,50.55
2023-03-06T15:35:57.293Z,50.24
2023-03-06T15:38:33.793Z,52.81
2023-03-06T15:41:03.415Z,48.56
2023-03-06T15:43:35.436Z,49.50
2023-03-06T15:46:05.443Z,51.59
2023-03-06T15:48:33.924Z,50.14
2023-03-06T15:51:02.640Z,48.77
2023-03-06T15:53:32.119Z,48.21
2023-03-06T15:56:00.461Z,49.77
2023-03-06T15:58:35.327Z,48.20
2023-03-06T16:01:03.739Z,49.39
2023-03-06T16:03:32.372Z,49.32
2023-03-06T16:06:00.488Z,48.19
2023-03-06T16:08:28.885Z,50.79
2023-03-06T16:10:59.108Z,49.96
2023-03-06T16:13:28.936Z,50.44
2023-03-06T16:15:57.384Z,50.35
2023-03-06T16:18:25.781Z,50.29
2023-03-06T16:20:53.706Z,50.58
2023-03-06T16:23:21.562Z,49.85
2023-03-06T16:25:50.697Z,51.12
2023-03-06T16:28:20.439Z,51.21
2023-03-06T16:30:48.338Z,48.35
2023-03-06T16:33:16.367Z,51.41
2023-03-06T16:35:46.590Z,54.02
2023-03-06T16:38:15.718Z,55.25
2023-03-06T16:40:43.992Z,56.12
2023-03-06T16:43:13.558Z,57.56
2023-03-06T16:45:43.785Z,57.89
2023-03-06T16:48:15.973Z,57.88
2023-03-06T16:50:44.157Z,58.26
2023-03-06T16:53:12.034Z,59.27
2023-03-06T16:55:39.925Z,58.81
2023-03-06T16:58:08.650Z,58.54
2023-03-06T17:00:36.534Z,58.66
2023-03-06T17:03:05.884Z,58.92
2023-03-06T17:05:34.371Z,58.89
2023-03-06T17:08:02.338Z,59.80
2023-03-06T17:10:30.198Z,60.06
2023-03-06T17:12:58.405Z,60.23
2023-03-06T17:15:26.446Z,59.80
2023-03-06T17:17:54.381Z,60.61
2023-03-06T17:20:23.891Z,60.63
2023-03-06T17:22:51.903Z,59.59
2023-03-06T17:25:19.937Z,60.07
2023-03-06T17:27:47.807Z,59.96
2023-03-06T17:30:16.414Z,61.04
2023-03-06T17:32:44.365Z,60.86
2023-03-06T17:35:12.236Z,61.11
2023-03-06T17:37:41.452Z,60.85
2023-03-06T17:40:11.989Z,61.09
2023-03-06T17:42:39.902Z,61.85
2023-03-06T17:45:11.124Z,62.32
2023-03-06T17:47:39.039Z,62.01
2023-03-06T17:50:07.277Z,62.36
2023-03-06T17:52:35.344Z,62.21
2023-03-06T17:55:04.909Z,63.17
2023-03-06T17:57:33.470Z,62.47
2023-03-06T18:00:01.441Z,62.22
2023-03-06T18:02:29.344Z,62.51
2023-03-06T18:04:58.186Z,62.62
2023-03-06T18:07:26.603Z,63.83
2023-03-06T18:09:54.501Z,64.48
2023-03-06T18:12:23.805Z,65.12
2023-03-06T18:14:51.810Z,65.04
2023-03-06T18:17:19.743Z,65.19
2023-03-06T18:19:47.822Z,65.87
2023-03-06T18:22:15.848Z,65.73
2023-03-06T18:24:43.763Z,66.13
2023-03-06T18:27:11.661Z,66.96
2023-03-06T18:29:40.957Z,66.93
2023-03-06T18:32:10.691Z,67.35
2023-03-06T18:34:38.934Z,67.32
2023-03-06T18:37:06.983Z,67.74
2023-03-06T18:39:34.931Z,67.48
2023-03-06T18:42:03.157Z,68.17
2023-03-06T18:44:31.057Z,68.57
2023-03-06T18:47:00.277Z,67.78
2023-03-06T18:49:28.273Z,68.65
2023-03-06T18:51:56.150Z,69.19
2023-03-06T18:54:25.303Z,68.44
2023-03-06T18:56:53.470Z,68.73
2023-03-06T18:59:21.403Z,69.10
2023-03-06T19:01:49.876Z,69.14
2023-03-06T19:04:19.183Z,69.37
2023-03-06T19:06:47.649Z,69.60
2023-03-06T19:09:15.569Z,70.11
2023-03-06T19:11:45.585Z,69.90
2023-03-06T19:14:13.598Z,70.63
2023-03-06T19:16:41.756Z,70.93
2023-03-06T19:19:09.623Z,70.55
2023-03-06T19:21:38.859Z,70.59
2023-03-06T19:24:13.235Z,69.90
2023-03-06T19:26:41.987Z,70.36
2023-03-06T19:29:10.108Z,69.98
2023-03-06T19:31:38.028Z,70.04
2023-03-06T19:34:05.919Z,70.30
2023-03-06T19:36:34.299Z,70.41
2023-03-06T19:39:06.347Z,70.41
2023-03-06T19:41:34.824Z,71.26
2023-03-06T19:44:04.976Z,70.84
2023-03-06T19:46:33.482Z,70.65
2023-03-06T19:49:02.959Z,70.81
2023-03-06T19:51:31.119Z,71.10
2023-03-06T19:53:59.209Z,71.00
2023-03-06T19:56:31.863Z,71.08
2023-03-06T19:58:59.758Z,70.94
2023-03-06T20:01:29.112Z,70.53
2023-03-06T20:03:59.166Z,70.70
2023-03-06T20:06:29.201Z,70.11
2023-03-06T20:08:57.988Z,70.79
2023-03-06T20:11:29.838Z,70.93
2023-03-06T20:13:58.462Z,71.19
2023-03-06T20:16:27.903Z,71.53
2023-03-06T20:18:58.042Z,71.30
2023-03-06T20:21:26.613Z,70.77
2023-03-06T20:23:56.923Z,71.03
2023-03-06T20:26:25.805Z,71.17
2023-03-06T20:28:55.401Z,70.93
2023-03-06T20:31:25.810Z,70.92
2023-03-06T20:33:55.651Z,70.58
2023-03-06T20:36:27.191Z,70.63
2023-03-06T20:38:55.390Z,70.91
2023-03-06T20:41:25.257Z,70.65
2023-03-06T20:43:53.702Z,71.23
2023-03-06T20:46:24.217Z,72.38
2023-03-06T20:48:54.102Z,71.71
2023-03-06T20:51:24.160Z,74.09
2023-03-06T20:53:54.090Z,73.75
2023-03-06T20:56:25.464Z,73.26
2023-03-06T20:58:53.921Z,73.71
2023-03-06T21:01:25.086Z,74.47
2023-03-06T21:03:53.202Z,73.95
2023-03-06T21:06:21.954Z,73.57
2023-03-06T21:08:50.208Z,73.50
2023-03-06T21:11:19.135Z,73.47
2023-03-06T21:13:47.272Z,73.25
2023-03-06T21:16:17.241Z,73.64
2023-03-06T21:18:47.139Z,73.35
2023-03-06T21:21:18.347Z,73.30
2023-03-06T21:23:46.803Z,74.92
2023-03-06T21:26:16.493Z,74.69
2023-03-06T21:28:44.905Z,74.29
2023-03-06T21:31:15.547Z,73.57
2023-03-06T21:33:44.275Z,73.34
2023-03-06T21:36:13.766Z,74.12
2023-03-06T21:38:41.647Z,73.75
2023-03-06T21:41:11.390Z,73.83
2023-03-06T21:43:39.973Z,73.78
2023-03-06T21:46:08.263Z,73.14
2023-03-06T21:48:36.861Z,74.18
2023-03-06T21:51:09.577Z,74.49
2023-03-06T21:53:40.977Z,73.38
2023-03-06T21:56:09.309Z,73.34
2023-03-06T21:58:37.195Z,73.34
2023-03-06T22:01:10.795Z,72.89
2023-03-06T22:03:39.231Z,73.37
2023-03-06T22:06:11.381Z,73.83
2023-03-06T22:08:41.022Z,73.52
2023-03-06T22:11:10.790Z,73.41
2023-03-06T22:13:39.261Z,73.13
2023-03-06T22:16:08.202Z,73.75
2023-03-06T22:18:37.172Z,73.42
2023-03-06T22:21:08.897Z,73.29
2023-03-06T22:23:37.245Z,73.42
2023-03-06T22:26:08.136Z,73.57
2023-03-06T22:28:36.436Z,74.02
2023-03-06T22:31:06.115Z,73.21
2023-03-06T22:33:34.060Z,74.07
2023-03-06T22:36:06.104Z,72.83
2023-03-06T22:38:34.774Z,73.17
2023-03-06T22:41:02.876Z,73.53
2023-03-06T22:43:32.852Z,73.69
2023-03-06T22:46:02.238Z,74.64
2023-03-06T22:48:30.303Z,73.20
2023-03-06T22:51:02.969Z,73.67
2023-03-06T22:53:30.932Z,73.33
2023-03-06T22:56:00.145Z,74.08
2023-03-06T22:58:34.196Z,73.24
2023-03-06T23:01:07.586Z,73.57
2023-03-06T23:03:37.019Z,73.90
2023-03-06T23:06:08.029Z,73.82
2023-03-06T23:08:36.092Z,74.26
2023-03-06T23:11:07.887Z,73.54
2023-03-06T23:13:54.688Z,74.09
2023-03-06T23:16:42.753Z,74.82
2023-03-06T23:19:29.244Z,75.18
2023-03-06T23:22:15.482Z,75.33
2023-03-06T23:25:01.731Z,74.80
2023-03-06T23:27:29.618Z,76.25
2023-03-06T23:29:58.941Z,75.04
2023-03-06T23:32:28.497Z,73.94
2023-03-06T23:34:56.633Z,74.58
2023-03-06T23:37:24.776Z,74.73
2023-03-06T23:39:52.851Z,74.15
2023-03-06T23:42:20.956Z,73.64
2023-03-06T23:44:49.148Z,74.35
2023-03-06T23:47:19.984Z,75.39
2023-03-06T23:49:49.260Z,75.41
2023-03-06T23:52:17.226Z,75.56
2023-03-06T23:54:45.100Z,76.19
2023-03-06T23:57:12.940Z,75.70
2023-03-06T23:59:40.848Z,76.17
